sensor_id;sensor_type;location;lat;lon;timestamp;pressure;altitude;pressure_sealevel;temperature;humidity
22862;BME280;11598;50.652;6.172;2024-03-29T00:01:47;94223.19;;;4.84;100.00
22862;BME280;11598;50.652;6.172;2024-03-29T00:11:48;94211.81;;;4.87;100.00
22862;BME280;11598;50.652;6.172;2024-03-29T00:21:48;94219.28;;;4.90;100.00
22862;BME280;11598;50.652;6.172;2024-03-29T00:31:48;94221.72;;;5.01;100.00
22862;BME280;11598;50.652;6.172;2024-03-29T00:41:49;94225.78;;;5.14;100.00
22862;BME280;11598;50.652;6.172;2024-03-29T00:51:49;94223.75;;;5.27;100.00
22862;BME280;11598;50.652;6.172;2024-03-29T01:01:50;94202.44;;;5.35;100.00
22862;BME280;11598;50.652;6.172;2024-03-29T01:11:51;94240.38;;;5.42;100.00
22862;BME280;11598;50.652;6.172;2024-03-29T01:21:51;94246.06;;;5.56;100.00
22862;BME280;11598;50.652;6.172;2024-03-29T01:31:52;94243.34;;;5.67;100.00
22862;BME280;11598;50.652;6.172;2024-03-29T01:41:52;94241.41;;;5.79;98.97
22862;BME280;11598;50.652;6.172;2024-03-29T01:51:53;94240.75;;;5.77;100.00
22862;BME280;11598;50.652;6.172;2024-03-29T02:01:53;94223.81;;;5.55;100.00
22862;BME280;11598;50.652;6.172;2024-03-29T02:11:54;94240.94;;;5.26;100.00
22862;BME280;11598;50.652;6.172;2024-03-29T02:21:56;94226.59;;;5.04;100.00
22862;BME280;11598;50.652;6.172;2024-03-29T02:31:59;94221.72;;;4.92;100.00
22862;BME280;11598;50.652;6.172;2024-03-29T02:41:59;94201.38;;;4.79;100.00
22862;BME280;11598;50.652;6.172;2024-03-29T02:52:00;94192.06;;;4.68;100.00
22862;BME280;11598;50.652;6.172;2024-03-29T03:02:00;94180.41;;;4.64;100.00
22862;BME280;11598;50.652;6.172;2024-03-29T03:12:01;94141.53;;;4.57;100.00
22862;BME280;11598;50.652;6.172;2024-03-29T03:22:01;94125.44;;;4.55;100.00
22862;BME280;11598;50.652;6.172;2024-03-29T03:32:01;94149.94;;;4.50;100.00
22862;BME280;11598;50.652;6.172;2024-03-29T03:42:02;94148.97;;;4.51;100.00
22862;BME280;11598;50.652;6.172;2024-03-29T03:52:03;94123.25;;;4.51;100.00
22862;BME280;11598;50.652;6.172;2024-03-29T04:02:03;94115.53;;;4.51;100.00
22862;BME280;11598;50.652;6.172;2024-03-29T04:12:04;94142.91;;;4.52;100.00
22862;BME280;11598;50.652;6.172;2024-03-29T04:22:05;94122.44;;;4.60;100.00
22862;BME280;11598;50.652;6.172;2024-03-29T04:32:05;94102.97;;;4.67;100.00
22862;BME280;11598;50.652;6.172;2024-03-29T04:42:06;94099.72;;;4.84;100.00
22862;BME280;11598;50.652;6.172;2024-03-29T04:52:07;94101.69;;;5.00;100.00
22862;BME280;11598;50.652;6.172;2024-03-29T05:02:07;94105.09;;;5.11;100.00
22862;BME280;11598;50.652;6.172;2024-03-29T05:12:08;94102.63;;;5.19;100.00
22862;BME280;11598;50.652;6.172;2024-03-29T05:22:08;94091.22;;;5.21;100.00
22862;BME280;11598;50.652;6.172;2024-03-29T05:32:09;94096.91;;;5.25;100.00
22862;BME280;11598;50.652;6.172;2024-03-29T05:42:09;94082.97;;;5.27;100.00
22862;BME280;11598;50.652;6.172;2024-03-29T05:52:10;94105.13;;;5.38;100.00
22862;BME280;11598;50.652;6.172;2024-03-29T06:02:12;94115.13;;;5.51;100.00
22862;BME280;11598;50.652;6.172;2024-03-29T06:12:13;94137.13;;;5.73;100.00
22862;BME280;11598;50.652;6.172;2024-03-29T06:22:13;94151.88;;;5.90;100.00
22862;BME280;11598;50.652;6.172;2024-03-29T06:32:14;94168.38;;;6.07;100.00
22862;BME280;11598;50.652;6.172;2024-03-29T06:42:15;94169.22;;;6.26;100.00
22862;BME280;11598;50.652;6.172;2024-03-29T06:52:15;94180.00;;;6.39;100.00
22862;BME280;11598;50.652;6.172;2024-03-29T07:02:15;94194.91;;;6.45;100.00
22862;BME280;11598;50.652;6.172;2024-03-29T07:12:16;94184.53;;;6.55;100.00
22862;BME280;11598;50.652;6.172;2024-03-29T07:22:16;94199.19;;;6.72;100.00
22862;BME280;11598;50.652;6.172;2024-03-29T07:32:17;94210.13;;;7.02;100.00
22862;BME280;11598;50.652;6.172;2024-03-29T07:42:17;94204.97;;;7.20;100.00
22862;BME280;11598;50.652;6.172;2024-03-29T07:52:19;94233.66;;;7.35;100.00
22862;BME280;11598;50.652;6.172;2024-03-29T08:02:19;94251.16;;;7.41;100.00
22862;BME280;11598;50.652;6.172;2024-03-29T08:12:20;94225.81;;;7.62;100.00
22862;BME280;11598;50.652;6.172;2024-03-29T08:22:20;94218.09;;;7.97;100.00
22862;BME280;11598;50.652;6.172;2024-03-29T08:32:21;94245.59;;;8.32;100.00
22862;BME280;11598;50.652;6.172;2024-03-29T08:42:21;94266.72;;;8.45;100.00
22862;BME280;11598;50.652;6.172;2024-03-29T08:52:21;94292.66;;;8.62;100.00
22862;BME280;11598;50.652;6.172;2024-03-29T09:02:22;94271.88;;;8.80;100.00
22862;BME280;11598;50.652;6.172;2024-03-29T09:12:23;94284.75;;;9.22;100.00
22862;BME280;11598;50.652;6.172;2024-03-29T09:22:23;94276.19;;;9.55;100.00
22862;BME280;11598;50.652;6.172;2024-03-29T09:32:24;94267.63;;;9.62;100.00
22862;BME280;11598;50.652;6.172;2024-03-29T09:42:25;94291.94;;;9.86;100.00
22862;BME280;11598;50.652;6.172;2024-03-29T09:52:26;94302.47;;;10.09;100.00
22862;BME280;11598;50.652;6.172;2024-03-29T10:02:31;94299.53;;;10.12;100.00
22862;BME280;11598;50.652;6.172;2024-03-29T10:12:32;94335.53;;;10.15;100.00
22862;BME280;11598;50.652;6.172;2024-03-29T10:22:40;94343.63;;;10.20;100.00
22862;BME280;11598;50.652;6.172;2024-03-29T10:32:41;94330.84;;;10.19;100.00
22862;BME280;11598;50.652;6.172;2024-03-29T10:42:42;94332.22;;;10.62;100.00
22862;BME280;11598;50.652;6.172;2024-03-29T10:52:44;94329.59;;;11.18;100.00
22862;BME280;11598;50.652;6.172;2024-03-29T11:13:02;94365.81;;;11.19;100.00
22862;BME280;11598;50.652;6.172;2024-03-29T11:23:12;94371.78;;;11.28;100.00
22862;BME280;11598;50.652;6.172;2024-03-29T11:33:33;94363.31;;;11.26;100.00
22862;BME280;11598;50.652;6.172;2024-03-29T11:43:35;94410.16;;;11.18;100.00
22862;BME280;11598;50.652;6.172;2024-03-29T11:53:36;94414.94;;;10.82;98.95
22862;BME280;11598;50.652;6.172;2024-03-29T12:03:40;94441.59;;;10.75;99.81
22862;BME280;11598;50.652;6.172;2024-03-29T12:13:41;94440.44;;;10.86;99.37
22862;BME280;11598;50.652;6.172;2024-03-29T12:23:47;94465.97;;;10.66;98.80
22862;BME280;11598;50.652;6.172;2024-03-29T12:33:53;94450.25;;;10.35;100.00
22862;BME280;11598;50.652;6.172;2024-03-29T12:43:54;94438.38;;;10.41;100.00
22862;BME280;11598;50.652;6.172;2024-03-29T12:53:54;94424.41;;;10.58;100.00
22862;BME280;11598;50.652;6.172;2024-03-29T13:03:55;94448.09;;;10.79;100.00
22862;BME280;11598;50.652;6.172;2024-03-29T13:13:56;94448.72;;;10.90;100.00
22862;BME280;11598;50.652;6.172;2024-03-29T13:23:56;94456.78;;;11.11;100.00
22862;BME280;11598;50.652;6.172;2024-03-29T13:33:56;94456.28;;;11.24;100.00
22862;BME280;11598;50.652;6.172;2024-03-29T13:44:04;94427.16;;;11.37;100.00
22862;BME280;11598;50.652;6.172;2024-03-29T13:54:05;94436.03;;;11.51;99.42
22862;BME280;11598;50.652;6.172;2024-03-29T14:04:06;94446.63;;;11.41;99.05
22862;BME280;11598;50.652;6.172;2024-03-29T14:14:06;94466.94;;;11.46;98.93
22862;BME280;11598;50.652;6.172;2024-03-29T14:24:08;94485.00;;;11.39;98.91
22862;BME280;11598;50.652;6.172;2024-03-29T14:34:08;94475.59;;;11.30;98.20
22862;BME280;11598;50.652;6.172;2024-03-29T14:44:09;94475.94;;;11.27;98.81
22862;BME280;11598;50.652;6.172;2024-03-29T14:54:09;94480.78;;;11.21;99.17
22862;BME280;11598;50.652;6.172;2024-03-29T15:04:10;94480.34;;;11.10;99.00
22862;BME280;11598;50.652;6.172;2024-03-29T15:14:10;94479.75;;;10.83;100.00
22862;BME280;11598;50.652;6.172;2024-03-29T15:24:11;94490.63;;;10.54;100.00
22862;BME280;11598;50.652;6.172;2024-03-29T15:34:11;94497.75;;;10.35;100.00
22862;BME280;11598;50.652;6.172;2024-03-29T15:44:12;94499.66;;;10.17;100.00
22862;BME280;11598;50.652;6.172;2024-03-29T15:54:15;94490.34;;;9.90;100.00
22862;BME280;11598;50.652;6.172;2024-03-29T16:04:17;94523.25;;;9.89;100.00
22862;BME280;11598;50.652;6.172;2024-03-29T16:14:17;94528.09;;;9.76;100.00
22862;BME280;11598;50.652;6.172;2024-03-29T16:24:17;94511.94;;;9.56;100.00
22862;BME280;11598;50.652;6.172;2024-03-29T16:34:18;94491.81;;;9.50;100.00
22862;BME280;11598;50.652;6.172;2024-03-29T16:44:18;94486.16;;;9.46;100.00
22862;BME280;11598;50.652;6.172;2024-03-29T16:54:18;94479.50;;;9.44;100.00
22862;BME280;11598;50.652;6.172;2024-03-29T17:04:19;94482.88;;;9.36;100.00
22862;BME280;11598;50.652;6.172;2024-03-29T17:14:19;94491.25;;;9.30;100.00
22862;BME280;11598;50.652;6.172;2024-03-29T17:24:20;94518.88;;;9.13;100.00
22862;BME280;11598;50.652;6.172;2024-03-29T17:34:20;94528.16;;;8.98;100.00
22862;BME280;11598;50.652;6.172;2024-03-29T17:44:21;94551.50;;;8.80;100.00
22862;BME280;11598;50.652;6.172;2024-03-29T17:54:21;94545.66;;;8.60;100.00
22862;BME280;11598;50.652;6.172;2024-03-29T18:04:22;94562.25;;;8.39;100.00
22862;BME280;11598;50.652;6.172;2024-03-29T18:14:22;94522.34;;;8.24;100.00
22862;BME280;11598;50.652;6.172;2024-03-29T18:24:23;94532.25;;;8.11;100.00
22862;BME280;11598;50.652;6.172;2024-03-29T18:34:23;94541.84;;;8.00;100.00
22862;BME280;11598;50.652;6.172;2024-03-29T18:44:24;94551.44;;;7.90;100.00
22862;BME280;11598;50.652;6.172;2024-03-29T18:54:24;94564.94;;;7.84;100.00
22862;BME280;11598;50.652;6.172;2024-03-29T19:04:24;94559.25;;;7.71;100.00
22862;BME280;11598;50.652;6.172;2024-03-29T19:14:25;94570.03;;;7.66;100.00
22862;BME280;11598;50.652;6.172;2024-03-29T19:24:25;94597.13;;;7.62;100.00
22862;BME280;11598;50.652;6.172;2024-03-29T19:34:26;94629.22;;;7.59;100.00
22862;BME280;11598;50.652;6.172;2024-03-29T19:44:26;94624.47;;;7.55;100.00
22862;BME280;11598;50.652;6.172;2024-03-29T19:54:26;94623.44;;;7.38;100.00
22862;BME280;11598;50.652;6.172;2024-03-29T20:04:28;94637.59;;;7.24;100.00
22862;BME280;11598;50.652;6.172;2024-03-29T20:14:30;94628.78;;;7.17;100.00
22862;BME280;11598;50.652;6.172;2024-03-29T20:24:31;94630.56;;;7.16;100.00
22862;BME280;11598;50.652;6.172;2024-03-29T20:34:34;94608.94;;;7.17;100.00
22862;BME280;11598;50.652;6.172;2024-03-29T20:44:34;94642.75;;;7.24;100.00
22862;BME280;11598;50.652;6.172;2024-03-29T20:54:35;94641.53;;;7.28;100.00
22862;BME280;11598;50.652;6.172;2024-03-29T21:04:35;94665.06;;;7.25;100.00
22862;BME280;11598;50.652;6.172;2024-03-29T21:14:54;94689.00;;;7.17;100.00
22862;BME280;11598;50.652;6.172;2024-03-29T21:24:54;94694.72;;;7.11;100.00
22862;BME280;11598;50.652;6.172;2024-03-29T21:34:54;94693.34;;;7.07;100.00
22862;BME280;11598;50.652;6.172;2024-03-29T21:44:55;94722.03;;;7.04;100.00
22862;BME280;11598;50.652;6.172;2024-03-29T21:54:55;94742.00;;;7.02;100.00
22862;BME280;11598;50.652;6.172;2024-03-29T22:04:56;94709.41;;;7.01;100.00
22862;BME280;11598;50.652;6.172;2024-03-29T22:14:56;94716.88;;;6.94;100.00
22862;BME280;11598;50.652;6.172;2024-03-29T22:24:58;94689.28;;;6.95;100.00
22862;BME280;11598;50.652;6.172;2024-03-29T22:34:59;94702.47;;;6.92;100.00
22862;BME280;11598;50.652;6.172;2024-03-29T22:44:59;94691.28;;;6.91;100.00
22862;BME280;11598;50.652;6.172;2024-03-29T22:54:59;94673.91;;;6.93;100.00
22862;BME280;11598;50.652;6.172;2024-03-29T23:05:00;94666.31;;;6.92;100.00
22862;BME280;11598;50.652;6.172;2024-03-29T23:15:00;94650.00;;;6.91;100.00
22862;BME280;11598;50.652;6.172;2024-03-29T23:25:01;94658.41;;;6.93;100.00
22862;BME280;11598;50.652;6.172;2024-03-29T23:35:03;94664.25;;;6.95;100.00
22862;BME280;11598;50.652;6.172;2024-03-29T23:45:03;94658.00;;;6.98;100.00
22862;BME280;11598;50.652;6.172;2024-03-29T23:55:04;94639.81;;;6.99;100.00
